createdAt,value
2022-10-17T00:00:35.366Z,6.03
2022-10-17T00:03:03.815Z,5.93
2022-10-17T00:05:32.066Z,6.33
2022-10-17T00:08:00.327Z,6.40
2022-10-17T00:10:28.510Z,6.13
2022-10-17T00:12:58.062Z,6.30
2022-10-17T00:15:26.230Z,6.60
2022-10-17T00:17:54.395Z,6.20
2022-10-17T00:20:22.540Z,7.10
2022-10-17T00:22:50.749Z,6.70
2022-10-17T00:25:19.301Z,6.20
2022-10-17T00:27:47.451Z,6.90
2022-10-17T00:30:17.883Z,7.07
2022-10-17T00:32:46.055Z,6.93
2022-10-17T00:35:14.253Z,7.30
2022-10-17T00:37:42.435Z,6.90
2022-10-17T00:40:11.472Z,7.60
2022-10-17T00:42:39.660Z,6.97
2022-10-17T00:45:20.590Z,7.47
2022-10-17T00:47:50.159Z,7.20
2022-10-17T00:50:18.331Z,7.70
2022-10-17T00:52:48.050Z,7.33
2022-10-17T00:55:18.218Z,7.63
2022-10-17T00:57:47.648Z,7.03
2022-10-17T01:00:16.170Z,6.93
2022-10-17T01:02:45.843Z,7.40
2022-10-17T01:05:14.661Z,7.40
2022-10-17T01:07:43.224Z,7.50
2022-10-17T01:10:12.390Z,7.43
2022-10-17T01:12:44.149Z,7.50
2022-10-17T01:15:15.567Z,8.20
2022-10-17T01:17:49.993Z,7.60
2022-10-17T01:20:30.948Z,8.10
2022-10-17T01:23:04.222Z,8.07
2022-10-17T01:25:41.219Z,8.40
2022-10-17T01:28:17.328Z,8.43
2022-10-17T01:30:56.431Z,7.47
2022-10-17T01:33:37.243Z,8.07
2022-10-17T01:36:10.154Z,8.20
2022-10-17T01:38:41.020Z,8.73
2022-10-17T01:41:11.721Z,7.90
2022-10-17T01:43:42.153Z,7.90
2022-10-17T01:46:14.864Z,8.00
2022-10-17T01:48:44.586Z,7.90
2022-10-17T01:51:14.893Z,7.43
2022-10-17T01:53:45.704Z,7.53
2022-10-17T01:56:15.845Z,8.00
2022-10-17T01:58:47.192Z,7.87
2022-10-17T02:01:17.459Z,7.80
2022-10-17T02:03:46.394Z,7.70
2022-10-17T02:06:14.722Z,7.33
2022-10-17T02:08:44.289Z,7.47
2022-10-17T02:11:14.676Z,7.60
2022-10-17T02:13:49.960Z,7.47
2022-10-17T02:16:25.515Z,6.67
2022-10-17T02:19:11.431Z,6.83
2022-10-17T02:21:44.107Z,7.47
2022-10-17T02:24:17.261Z,7.00
2022-10-17T02:26:47.641Z,6.97
2022-10-17T02:29:17.345Z,7.20
2022-10-17T02:31:48.695Z,7.00
2022-10-17T02:37:00.853Z,7.00
2022-10-17T02:39:30.197Z,7.07
2022-10-17T02:41:59.632Z,7.23
2022-10-17T02:44:28.629Z,6.67
2022-10-17T02:47:03.463Z,6.67
2022-10-17T02:49:33.234Z,6.60
2022-10-17T02:52:03.877Z,6.60
2022-10-17T02:54:35.393Z,6.47
2022-10-17T02:57:08.579Z,6.40
2022-10-17T02:59:37.594Z,6.10
2022-10-17T03:02:08.001Z,6.70
2022-10-17T03:04:36.185Z,6.37
2022-10-17T03:07:04.399Z,7.10
2022-10-17T03:09:32.560Z,6.43
2022-10-17T03:12:00.708Z,6.60
2022-10-17T03:14:28.872Z,5.87
2022-10-17T03:16:57.033Z,6.83
2022-10-17T03:19:26.591Z,6.20
2022-10-17T03:21:54.824Z,5.87
2022-10-17T03:24:22.993Z,5.47
2022-10-17T03:26:51.241Z,5.90
2022-10-17T03:29:19.420Z,7.47
2022-10-17T03:31:47.617Z,5.90
2022-10-17T03:34:16.714Z,5.70
2022-10-17T03:36:46.260Z,6.17
2022-10-17T03:39:14.528Z,5.77
2022-10-17T03:41:42.725Z,5.90
2022-10-17T03:44:10.940Z,5.57
2022-10-17T03:46:39.157Z,6.17
2022-10-17T03:49:07.325Z,5.87
2022-10-17T03:51:35.877Z,5.70
2022-10-17T03:54:05.525Z,5.83
2022-10-17T03:56:33.702Z,5.97
2022-10-17T03:59:01.880Z,5.80
2022-10-17T04:01:31.848Z,6.27
2022-10-17T04:04:00.087Z,6.37
2022-10-17T04:06:28.348Z,5.30
2022-10-17T04:08:56.620Z,6.40
2022-10-17T04:11:26.156Z,5.70
2022-10-17T04:13:54.830Z,8.60
2022-10-17T04:16:23.021Z,7.00
2022-10-17T04:18:54.550Z,6.50
2022-10-17T04:21:23.062Z,6.37
2022-10-17T04:23:54.333Z,7.03
2022-10-17T04:26:22.612Z,6.70
2022-10-17T04:28:52.307Z,6.37
2022-10-17T04:31:20.554Z,6.30
2022-10-17T04:33:49.145Z,5.93
2022-10-17T04:36:18.026Z,6.70
2022-10-17T04:38:46.389Z,5.77
2022-10-17T04:41:15.450Z,6.17
2022-10-17T04:43:46.879Z,6.20
2022-10-17T04:46:19.683Z,5.90
2022-10-17T04:48:47.892Z,6.10
2022-10-17T04:51:17.031Z,6.33
2022-10-17T04:53:46.022Z,5.77
2022-10-17T04:56:15.866Z,6.13
2022-10-17T04:58:44.855Z,6.23
2022-10-17T05:01:15.135Z,6.33
2022-10-17T05:03:44.742Z,6.40
2022-10-17T05:06:13.763Z,5.83
2022-10-17T05:08:42.042Z,6.50
2022-10-17T05:11:17.003Z,6.10
2022-10-17T05:13:45.219Z,6.67
2022-10-17T05:16:13.394Z,6.57
2022-10-17T05:18:41.568Z,6.23
2022-10-17T05:21:11.108Z,6.20
2022-10-17T05:23:39.266Z,6.87
2022-10-17T05:26:07.441Z,6.43
2022-10-17T05:28:35.681Z,6.30
2022-10-17T05:31:04.811Z,6.30
2022-10-17T05:33:33.041Z,6.20
2022-10-17T05:36:01.292Z,6.63
2022-10-17T05:38:30.874Z,7.00
2022-10-17T05:40:59.646Z,6.10
2022-10-17T05:43:28.060Z,6.77
2022-10-17T05:45:56.499Z,6.53
2022-10-17T05:48:25.275Z,6.70
2022-10-17T05:50:59.400Z,6.40
2022-10-17T05:53:27.622Z,7.53
2022-10-17T05:56:00.889Z,6.43
2022-10-17T05:58:49.331Z,7.33
2022-10-17T06:01:17.825Z,7.40
2022-10-17T06:03:46.402Z,6.90
2022-10-17T06:06:15.479Z,6.80
2022-10-17T06:08:44.035Z,6.47
2022-10-17T06:11:14.025Z,6.67
2022-10-17T06:13:42.386Z,6.73
2022-10-17T06:16:10.605Z,6.30
2022-10-17T06:18:38.815Z,6.73
2022-10-17T06:21:07.710Z,7.00
2022-10-17T06:23:35.910Z,6.63
2022-10-17T06:26:04.816Z,6.57
2022-10-17T06:28:34.565Z,6.13
2022-10-17T06:31:05.724Z,6.40
2022-10-17T06:33:33.899Z,6.00
2022-10-17T06:36:02.187Z,5.97
2022-10-17T06:38:30.459Z,5.93
2022-10-17T06:41:04.834Z,6.03
2022-10-17T06:43:34.349Z,6.17
2022-10-17T06:46:02.746Z,6.07
2022-10-17T06:48:31.211Z,5.83
2022-10-17T06:51:01.011Z,5.73
2022-10-17T06:53:29.689Z,5.67
2022-10-17T06:56:01.374Z,5.30
2022-10-17T06:58:29.844Z,5.83
2022-10-17T07:01:01.718Z,5.27
2022-10-17T07:03:30.290Z,5.63
2022-10-17T07:05:58.566Z,5.50
2022-10-17T07:08:27.203Z,5.63
2022-10-17T07:10:55.516Z,5.80
2022-10-17T07:13:24.257Z,5.53
2022-10-17T07:15:52.607Z,5.40
2022-10-17T07:18:22.423Z,5.97
2022-10-17T07:20:54.739Z,5.23
2022-10-17T07:23:23.042Z,5.10
2022-10-17T07:25:51.237Z,6.20
2022-10-17T07:28:19.452Z,5.70
2022-10-17T07:30:51.968Z,4.90
2022-10-17T07:33:24.165Z,5.20
2022-10-17T07:35:53.233Z,5.30
2022-10-17T07:38:21.501Z,5.30
2022-10-17T07:40:55.430Z,5.03
2022-10-17T07:43:23.700Z,5.40
2022-10-17T07:45:51.963Z,4.93
2022-10-17T07:48:20.489Z,5.13
2022-10-17T07:50:50.113Z,5.00
2022-10-17T07:53:18.362Z,4.80
2022-10-17T07:55:47.831Z,4.93
2022-10-17T07:58:16.480Z,4.90
2022-10-17T08:00:48.245Z,5.60
2022-10-17T08:03:16.642Z,4.93
2022-10-17T08:05:45.076Z,4.50
2022-10-17T08:08:14.586Z,4.80
2022-10-17T08:10:42.748Z,4.70
2022-10-17T08:13:10.935Z,5.07
2022-10-17T08:15:39.951Z,4.20
2022-10-17T08:18:08.167Z,4.88
2022-10-17T08:20:36.414Z,4.55
2022-10-17T08:23:04.576Z,4.50
2022-10-17T08:25:34.111Z,4.40
2022-10-17T08:28:02.343Z,4.50
2022-10-17T08:30:31.165Z,4.60
2022-10-17T08:32:59.413Z,4.68
2022-10-17T08:35:27.553Z,5.40
2022-10-17T08:37:55.735Z,4.88
2022-10-17T08:40:26.331Z,5.50
2022-10-17T08:43:02.966Z,4.75
2022-10-17T08:45:34.496Z,4.95
2022-10-17T08:48:04.206Z,4.80
2022-10-17T08:50:35.669Z,4.78
2022-10-17T08:53:06.132Z,4.90
2022-10-17T08:55:40.009Z,5.40
2022-10-17T08:58:16.273Z,4.65
2022-10-17T09:00:47.795Z,5.10
2022-10-17T09:03:24.203Z,4.57
2022-10-17T09:05:53.817Z,4.90
2022-10-17T09:08:29.062Z,4.70
2022-10-17T09:10:59.253Z,4.13
2022-10-17T09:13:43.931Z,4.32
2022-10-17T09:16:21.028Z,3.80
2022-10-17T09:18:54.617Z,4.25
2022-10-17T09:21:24.957Z,4.28
2022-10-17T09:23:59.693Z,3.78
2022-10-17T09:26:37.502Z,4.00
2022-10-17T09:29:14.548Z,4.22
2022-10-17T09:31:45.936Z,4.18
2022-10-17T09:34:14.199Z,4.60
2022-10-17T09:36:43.977Z,4.10
2022-10-17T09:39:33.989Z,4.35
2022-10-17T09:42:02.895Z,4.30
2022-10-17T09:44:34.075Z,3.85
2022-10-17T09:47:17.037Z,3.88
2022-10-17T09:49:45.979Z,4.25
2022-10-17T09:52:16.296Z,4.13
2022-10-17T09:54:45.901Z,3.92
2022-10-17T09:57:14.802Z,4.30
2022-10-17T09:59:45.633Z,4.10
2022-10-17T10:02:19.150Z,3.90
2022-10-17T10:05:09.293Z,3.72
2022-10-17T10:07:38.450Z,4.30
2022-10-17T10:10:08.182Z,3.85
2022-10-17T10:12:38.257Z,3.80
2022-10-17T10:15:32.045Z,4.18
2022-10-17T10:18:00.282Z,4.00
2022-10-17T10:20:33.557Z,4.43
2022-10-17T10:23:08.920Z,4.10
2022-10-17T10:25:37.577Z,3.83
2022-10-17T10:28:11.771Z,4.03
2022-10-17T10:30:41.353Z,4.07
2022-10-17T10:33:13.290Z,4.00
2022-10-17T10:35:41.545Z,3.78
2022-10-17T10:38:12.425Z,3.70
2022-10-17T10:40:46.437Z,4.50
2022-10-17T10:43:23.366Z,4.30
2022-10-17T10:45:53.445Z,3.83
2022-10-17T10:48:23.159Z,4.70
2022-10-17T10:50:52.624Z,4.18
2022-10-17T10:53:34.799Z,4.20
2022-10-17T10:56:05.954Z,4.00
2022-10-17T10:58:41.856Z,4.40
2022-10-17T11:01:16.769Z,6.22
2022-10-17T11:03:54.686Z,4.30
2022-10-17T11:06:25.706Z,4.65
2022-10-17T11:09:00.900Z,4.28
2022-10-17T11:11:32.304Z,4.28
2022-10-17T11:14:02.184Z,3.90
2022-10-17T11:16:34.879Z,3.85
2022-10-17T11:19:09.891Z,4.18
2022-10-17T11:24:14.389Z,3.80
2022-10-17T11:26:43.719Z,4.00
2022-10-17T11:29:12.790Z,3.80
2022-10-17T11:31:45.302Z,3.60
2022-10-17T11:34:19.556Z,3.90
2022-10-17T11:36:48.669Z,3.70
2022-10-17T11:39:19.449Z,4.00
2022-10-17T11:41:49.849Z,3.92
2022-10-17T11:44:32.459Z,3.50
2022-10-17T11:47:02.325Z,4.18
2022-10-17T11:49:35.439Z,3.97
2022-10-17T11:52:18.298Z,3.83
2022-10-17T11:54:53.502Z,4.13
2022-10-17T11:57:34.810Z,4.30
2022-10-17T12:00:10.033Z,4.75
2022-10-17T12:02:43.325Z,4.43
2022-10-17T12:05:17.602Z,5.03
2022-10-17T12:07:49.914Z,4.57
2022-10-17T12:10:26.668Z,5.25
2022-10-17T12:12:54.912Z,5.03
2022-10-17T12:15:30.373Z,5.20
2022-10-17T12:18:02.358Z,5.65
2022-10-17T12:20:32.124Z,5.53
2022-10-17T12:23:03.797Z,5.20
2022-10-17T12:25:33.802Z,5.00
2022-10-17T12:28:15.840Z,5.20
2022-10-17T12:30:51.650Z,4.90
2022-10-17T12:33:23.036Z,4.80
2022-10-17T12:35:51.961Z,4.82
2022-10-17T12:38:27.597Z,4.68
2022-10-17T12:40:57.189Z,5.25
2022-10-17T12:43:52.408Z,5.20
2022-10-17T12:46:39.213Z,5.28
2022-10-17T12:49:21.524Z,5.20
2022-10-17T12:52:22.994Z,5.00
2022-10-17T12:55:00.595Z,4.90
2022-10-17T12:57:37.704Z,4.90
2022-10-17T13:00:07.391Z,4.72
2022-10-17T13:02:35.602Z,4.97
2022-10-17T13:05:15.829Z,5.07
2022-10-17T13:07:45.833Z,4.65
2022-10-17T13:10:24.087Z,4.53
2022-10-17T13:12:53.295Z,5.40
2022-10-17T13:15:22.268Z,5.00
2022-10-17T13:17:57.716Z,5.15
2022-10-17T13:20:31.278Z,5.00
2022-10-17T13:23:00.794Z,4.95
2022-10-17T13:25:29.772Z,5.00
2022-10-17T13:28:08.798Z,4.82
2022-10-17T13:30:37.681Z,5.07
2022-10-17T13:33:18.075Z,4.85
2022-10-17T13:35:59.855Z,5.10
2022-10-17T13:38:30.282Z,4.88
2022-10-17T13:41:10.767Z,5.07
2022-10-17T13:43:46.763Z,5.45
2022-10-17T13:46:36.288Z,4.88
2022-10-17T13:49:11.303Z,4.88
2022-10-17T13:51:43.955Z,5.22
2022-10-17T13:54:19.170Z,5.40
2022-10-17T13:56:47.412Z,5.40
2022-10-17T13:59:23.491Z,6.53
2022-10-17T14:01:52.196Z,5.70
2022-10-17T14:04:20.763Z,5.75
2022-10-17T14:06:52.270Z,5.82
2022-10-17T14:09:23.855Z,6.22
2022-10-17T14:11:59.638Z,6.07
2022-10-17T14:14:28.413Z,7.57
2022-10-17T14:16:56.859Z,6.05
2022-10-17T14:19:27.004Z,5.47
2022-10-17T14:21:57.323Z,6.22
2022-10-17T14:24:30.072Z,6.50
2022-10-17T14:26:59.681Z,6.57
2022-10-17T14:29:29.409Z,6.85
2022-10-17T14:32:04.673Z,6.45
2022-10-17T14:34:34.042Z,6.45
2022-10-17T14:37:04.382Z,5.72
2022-10-17T14:39:32.565Z,6.18
2022-10-17T14:42:04.251Z,5.80
2022-10-17T14:44:33.731Z,5.60
2022-10-17T14:47:18.155Z,6.38
2022-10-17T14:49:52.027Z,6.35
2022-10-17T14:52:29.561Z,6.25
2022-10-17T14:54:58.503Z,6.63
2022-10-17T14:57:28.302Z,5.85
2022-10-17T14:59:57.149Z,6.30
2022-10-17T15:02:25.881Z,6.05
2022-10-17T15:04:57.554Z,5.70
2022-10-17T15:07:25.974Z,5.93
2022-10-17T15:09:56.072Z,5.97
2022-10-17T15:12:25.730Z,5.65
2022-10-17T15:14:54.287Z,5.78
2022-10-17T15:17:25.161Z,6.10
2022-10-17T15:19:53.435Z,5.32
2022-10-17T15:22:21.636Z,5.88
2022-10-17T15:24:49.805Z,5.57
2022-10-17T15:27:19.890Z,6.15
2022-10-17T15:29:48.463Z,5.30
2022-10-17T15:32:16.728Z,6.15
2022-10-17T15:34:44.915Z,5.78
2022-10-17T15:37:18.906Z,5.35
2022-10-17T15:39:52.922Z,5.32
2022-10-17T15:42:22.703Z,6.00
2022-10-17T15:44:50.898Z,5.55
2022-10-17T15:47:25.061Z,5.88
2022-10-17T15:49:53.258Z,5.95
2022-10-17T15:52:21.440Z,5.63
2022-10-17T15:54:49.634Z,5.65
2022-10-17T15:57:18.996Z,6.10
2022-10-17T15:59:49.268Z,6.43
2022-10-17T16:02:18.398Z,6.25
2022-10-17T16:04:46.900Z,6.20
2022-10-17T16:07:15.153Z,6.20
2022-10-17T16:09:43.441Z,6.10
2022-10-17T16:12:14.152Z,6.50
2022-10-17T16:14:42.506Z,6.38
2022-10-17T16:17:14.047Z,6.32
2022-10-17T16:19:42.280Z,6.38
2022-10-17T16:22:13.637Z,5.95
2022-10-17T16:24:44.283Z,6.10
2022-10-17T16:27:14.921Z,6.30
2022-10-17T16:29:43.413Z,5.95
2022-10-17T16:32:13.370Z,6.93
2022-10-17T16:34:41.745Z,6.63
2022-10-17T16:37:19.031Z,6.32
2022-10-17T16:39:52.238Z,6.73
2022-10-17T16:42:20.583Z,6.03
2022-10-17T16:44:52.368Z,6.97
2022-10-17T16:47:22.038Z,6.25
2022-10-17T16:49:50.430Z,6.75
2022-10-17T16:52:18.607Z,7.20
2022-10-17T16:54:52.322Z,7.05
2022-10-17T16:57:30.108Z,7.22
2022-10-17T16:59:58.367Z,7.32
2022-10-17T17:02:28.073Z,7.45
2022-10-17T17:04:56.368Z,7.40
2022-10-17T17:07:25.349Z,7.88
2022-10-17T17:09:53.670Z,7.00
2022-10-17T17:12:21.864Z,7.68
2022-10-17T17:14:50.066Z,7.60
2022-10-17T17:17:30.348Z,6.97
2022-10-17T17:20:07.377Z,7.35
2022-10-17T17:22:35.553Z,7.25
2022-10-17T17:25:03.880Z,7.63
2022-10-17T17:27:32.371Z,7.30
2022-10-17T17:30:00.843Z,6.70
2022-10-17T17:32:29.070Z,7.28
2022-10-17T17:34:57.254Z,7.10
2022-10-17T17:37:27.128Z,7.07
2022-10-17T17:39:55.454Z,7.43
2022-10-17T17:42:23.637Z,8.13
2022-10-17T17:44:52.153Z,10.32
2022-10-17T17:47:20.383Z,7.32
2022-10-17T17:49:48.679Z,7.03
2022-10-17T17:52:16.994Z,7.07
2022-10-17T17:54:47.365Z,7.20
2022-10-17T17:57:15.602Z,7.90
2022-10-17T17:59:43.822Z,7.07
2022-10-17T18:02:12.091Z,7.15
2022-10-17T18:04:40.393Z,7.18
2022-10-17T18:07:08.568Z,7.60
2022-10-17T18:09:36.787Z,7.57
2022-10-17T18:12:06.596Z,7.53
2022-10-17T18:14:34.795Z,7.95
2022-10-17T18:17:03.053Z,8.18
2022-10-17T18:19:31.378Z,7.88
2022-10-17T18:21:59.610Z,8.35
2022-10-17T18:24:27.861Z,7.50
2022-10-17T18:26:59.724Z,7.05
2022-10-17T18:29:31.191Z,7.00
2022-10-17T18:32:00.227Z,6.75
2022-10-17T18:34:29.531Z,6.85
2022-10-17T18:36:58.825Z,7.15
2022-10-17T18:39:27.242Z,7.63
2022-10-17T18:41:55.513Z,7.50
2022-10-17T18:44:23.699Z,8.45
2022-10-17T18:46:53.263Z,7.47
2022-10-17T18:49:23.131Z,7.25
2022-10-17T18:51:51.356Z,7.30
2022-10-17T18:54:20.594Z,7.78
2022-10-17T18:56:48.875Z,7.32
2022-10-17T18:59:17.383Z,18.27
2022-10-17T19:01:45.648Z,7.88
2022-10-17T19:04:15.293Z,8.63
2022-10-17T19:06:43.561Z,7.13
2022-10-17T19:09:12.598Z,7.33
2022-10-17T19:11:41.990Z,7.90
2022-10-17T19:14:13.253Z,7.70
2022-10-17T19:16:42.820Z,8.00
2022-10-17T19:19:13.900Z,8.27
2022-10-17T19:21:43.990Z,7.70
2022-10-17T19:24:14.338Z,8.00
2022-10-17T19:26:42.892Z,7.57
2022-10-17T19:29:11.616Z,7.90
2022-10-17T19:31:39.958Z,7.87
2022-10-17T19:34:08.186Z,8.17
2022-10-17T19:36:40.915Z,7.90
2022-10-17T19:39:12.840Z,8.53
2022-10-17T19:41:41.804Z,7.93
2022-10-17T19:44:09.977Z,8.70
2022-10-17T19:46:38.395Z,8.83
2022-10-17T19:49:07.210Z,8.70
2022-10-17T19:51:35.642Z,8.20
2022-10-17T19:54:04.002Z,8.27
2022-10-17T19:56:37.494Z,8.90
2022-10-17T19:59:06.112Z,9.87
2022-10-17T20:01:35.184Z,9.27
2022-10-17T20:04:03.525Z,9.10
2022-10-17T20:06:31.824Z,9.20
2022-10-17T20:08:59.968Z,9.70
2022-10-17T20:11:29.241Z,9.23
2022-10-17T20:13:58.978Z,10.00
2022-10-17T20:16:28.778Z,11.10
2022-10-17T20:18:58.111Z,12.53
2022-10-17T20:21:28.160Z,11.40
2022-10-17T20:23:56.442Z,12.67
2022-10-17T20:26:37.157Z,13.43
2022-10-17T20:29:10.708Z,14.00
2022-10-17T20:31:39.359Z,13.17
2022-10-17T20:34:07.556Z,13.63
2022-10-17T20:36:37.357Z,14.87
2022-10-17T20:39:07.174Z,14.53
2022-10-17T20:41:35.746Z,13.93
2022-10-17T20:44:03.932Z,14.97
2022-10-17T20:46:37.825Z,14.97
2022-10-17T20:49:08.652Z,14.80
2022-10-17T20:51:37.258Z,15.73
2022-10-17T20:54:05.848Z,15.70
2022-10-17T20:56:34.982Z,14.40
2022-10-17T20:59:04.591Z,15.37
2022-10-17T21:01:35.060Z,16.10
2022-10-17T21:04:21.752Z,15.33
2022-10-17T21:06:52.059Z,15.20
2022-10-17T21:09:20.727Z,15.60
2022-10-17T21:11:51.142Z,16.20
2022-10-17T21:14:19.711Z,15.50
2022-10-17T21:16:49.762Z,15.17
2022-10-17T21:19:18.291Z,15.87
2022-10-17T21:21:47.139Z,15.03
2022-10-17T21:24:17.748Z,14.83
2022-10-17T21:26:46.572Z,14.90
2022-10-17T21:29:15.518Z,15.10
2022-10-17T21:31:44.589Z,14.90
2022-10-17T21:34:15.022Z,14.37
2022-10-17T21:36:43.500Z,15.17
2022-10-17T21:39:12.032Z,15.43
2022-10-17T21:41:40.348Z,15.23
2022-10-17T21:44:12.588Z,15.55
2022-10-17T21:46:40.883Z,14.73
2022-10-17T21:49:09.214Z,14.90
2022-10-17T21:51:38.732Z,15.70
2022-10-17T21:54:07.021Z,16.03
2022-10-17T21:56:36.307Z,14.17
2022-10-17T21:59:05.346Z,15.37
2022-10-17T22:01:35.018Z,15.47
2022-10-17T22:04:04.716Z,16.47
2022-10-17T22:06:39.735Z,16.50
2022-10-17T22:09:11.342Z,16.93
2022-10-17T22:11:39.520Z,17.33
2022-10-17T22:14:08.515Z,16.37
2022-10-17T22:16:36.939Z,16.53
2022-10-17T22:19:06.638Z,16.73
2022-10-17T22:21:35.610Z,17.37
2022-10-17T22:24:05.076Z,17.77
2022-10-17T22:26:35.696Z,17.00
2022-10-17T22:29:04.308Z,16.20
2022-10-17T22:31:32.805Z,17.63
2022-10-17T22:34:00.987Z,16.67
2022-10-17T22:36:29.275Z,16.20
2022-10-17T22:38:57.447Z,16.97
2022-10-17T22:41:25.593Z,17.53
2022-10-17T22:43:55.117Z,18.07
2022-10-17T22:46:23.391Z,17.83
2022-10-17T22:48:51.668Z,17.40
2022-10-17T22:51:19.914Z,18.00
2022-10-17T22:53:48.123Z,17.37
2022-10-17T22:56:17.047Z,17.67
2022-10-17T22:58:45.273Z,16.90
2022-10-17T23:01:16.151Z,17.13
2022-10-17T23:03:44.833Z,16.37
2022-10-17T23:06:13.263Z,16.97
2022-10-17T23:08:41.551Z,16.50
2022-10-17T23:11:10.106Z,16.47
2022-10-17T23:13:39.679Z,16.97
2022-10-17T23:16:10.527Z,17.17
2022-10-17T23:18:40.457Z,16.43
2022-10-17T23:21:08.670Z,17.07
2022-10-17T23:23:36.828Z,17.37
2022-10-17T23:26:05.791Z,17.80
2022-10-17T23:28:35.584Z,17.10
2022-10-17T23:31:14.605Z,16.83
2022-10-17T23:33:45.062Z,16.50
2022-10-17T23:36:13.696Z,17.63
2022-10-17T23:38:42.184Z,18.23
2022-10-17T23:41:10.415Z,18.77
2022-10-17T23:43:39.177Z,19.23
2022-10-17T23:46:08.017Z,19.53
2022-10-17T23:48:37.395Z,19.47
2022-10-17T23:51:08.423Z,19.53
2022-10-17T23:53:36.692Z,19.63
2022-10-17T23:56:05.370Z,20.00
2022-10-17T23:58:33.555Z,20.40
